createdAt,value
2023-01-03T00:02:21.986Z,98871.09
2023-01-03T00:04:49.924Z,98879.50
2023-01-03T00:07:33.630Z,98868.50
2023-01-03T00:10:06.260Z,98849.97
2023-01-03T00:12:33.381Z,98863.09
2023-01-03T00:15:00.182Z,98864.84
2023-01-03T00:17:27.618Z,98858.50
2023-01-03T00:19:54.664Z,98862.72
2023-01-03T00:22:21.873Z,98848.56
2023-01-03T00:24:49.049Z,98853.50
2023-01-03T00:27:16.086Z,98850.00
2023-01-03T00:29:42.793Z,98849.69
2023-01-03T00:32:09.917Z,98856.28
2023-01-03T00:34:36.804Z,98855.06
2023-01-03T00:37:03.593Z,98851.47
2023-01-03T00:39:30.345Z,98856.88
2023-01-03T00:41:57.119Z,98856.00
2023-01-03T00:44:23.887Z,98876.78
2023-01-03T00:46:50.684Z,98895.56
2023-01-03T00:49:17.463Z,98885.63
2023-01-03T00:51:44.307Z,98885.13
2023-01-03T00:54:12.401Z,98901.69
2023-01-03T00:56:42.889Z,98896.66
2023-01-03T00:59:09.801Z,98892.56
2023-01-03T01:01:48.111Z,98887.38
2023-01-03T01:04:26.606Z,98895.41
2023-01-03T01:06:55.721Z,98886.53
2023-01-03T01:09:27.944Z,98886.75
2023-01-03T01:11:54.967Z,98883.16
2023-01-03T01:14:23.110Z,98878.09
2023-01-03T01:16:52.444Z,98876.53
2023-01-03T01:19:27.364Z,98879.34
2023-01-03T01:21:54.222Z,98874.56
2023-01-03T01:24:21.043Z,98870.19
2023-01-03T01:26:48.035Z,98876.63
2023-01-03T01:29:15.264Z,98878.34
2023-01-03T01:31:42.424Z,98890.59
2023-01-03T01:34:09.283Z,98882.41
2023-01-03T01:36:41.864Z,98902.16
2023-01-03T01:39:23.075Z,98889.66
2023-01-03T01:42:13.695Z,98906.94
2023-01-03T01:44:49.146Z,98904.97
2023-01-03T01:48:01.283Z,98912.16
2023-01-03T01:50:45.699Z,98922.53
2023-01-03T01:53:12.387Z,98930.03
2023-01-03T01:55:46.809Z,98931.25
2023-01-03T01:58:13.642Z,98936.53
2023-01-03T02:00:41.368Z,98940.09
2023-01-03T02:03:08.383Z,98919.03
2023-01-03T02:05:36.255Z,98946.00
2023-01-03T02:08:03.121Z,98954.03
2023-01-03T02:11:06.845Z,98959.09
2023-01-03T02:13:51.079Z,98961.66
2023-01-03T02:16:35.313Z,98962.38
2023-01-03T02:19:43.559Z,98963.63
2023-01-03T02:22:14.812Z,98954.44
2023-01-03T02:25:00.181Z,98947.81
2023-01-03T02:27:42.203Z,98947.81
2023-01-03T02:30:37.946Z,98950.22
2023-01-03T02:33:14.543Z,98956.75
2023-01-03T02:35:51.163Z,98944.91
2023-01-03T02:38:17.919Z,98947.31
2023-01-03T02:40:46.225Z,98928.91
2023-01-03T02:43:21.267Z,98941.88
2023-01-03T02:46:05.132Z,98938.22
2023-01-03T02:48:59.547Z,98957.97
2023-01-03T02:51:27.814Z,98956.13
2023-01-03T02:53:54.695Z,98955.72
2023-01-03T02:56:27.722Z,98962.91
2023-01-03T02:58:57.563Z,98960.47
2023-01-03T03:01:24.708Z,98953.00
2023-01-03T03:03:52.942Z,98967.56
2023-01-03T03:06:38.623Z,98973.69
2023-01-03T03:09:05.428Z,98965.13
2023-01-03T03:11:53.091Z,98957.78
2023-01-03T03:14:31.737Z,98953.19
2023-01-03T03:17:00.657Z,98945.94
2023-01-03T03:19:50.454Z,98947.09
2023-01-03T03:22:57.159Z,98951.09
2023-01-03T03:25:28.467Z,98949.78
2023-01-03T03:28:16.850Z,98941.72
2023-01-03T03:30:43.687Z,98955.91
2023-01-03T03:33:10.740Z,98961.00
2023-01-03T03:36:00.148Z,98961.84
2023-01-03T03:38:41.387Z,98955.53
2023-01-03T03:42:01.587Z,98973.81
2023-01-03T03:45:00.900Z,98973.69
2023-01-03T03:47:39.557Z,98973.03
2023-01-03T03:50:27.922Z,98966.91
2023-01-03T03:52:58.154Z,98971.09
2023-01-03T03:56:00.373Z,98985.91
2023-01-03T03:58:33.497Z,98978.13
2023-01-03T04:01:00.251Z,98975.19
2023-01-03T04:03:26.997Z,98977.09
2023-01-03T04:05:58.562Z,98954.19
2023-01-03T04:08:25.374Z,98974.31
2023-01-03T04:10:52.177Z,98971.38
2023-01-03T04:13:19.099Z,98968.66
2023-01-03T04:15:45.790Z,98974.88
2023-01-03T04:18:12.973Z,98975.41
2023-01-03T04:20:40.052Z,98978.75
2023-01-03T04:23:06.889Z,98985.97
2023-01-03T04:25:33.769Z,98990.50
2023-01-03T04:28:00.763Z,98983.44
2023-01-03T04:30:27.503Z,98981.22
2023-01-03T04:32:54.322Z,98989.47
2023-01-03T04:35:21.131Z,98991.88
2023-01-03T04:37:47.895Z,98974.78
2023-01-03T04:40:14.737Z,98958.75
2023-01-03T04:43:00.174Z,98994.41
2023-01-03T04:45:26.955Z,98990.81
2023-01-03T04:47:54.053Z,98989.78
2023-01-03T04:50:20.873Z,98988.91
2023-01-03T04:52:47.643Z,98993.88
2023-01-03T04:55:14.454Z,98990.81
2023-01-03T04:57:41.240Z,98989.75
2023-01-03T05:00:08.765Z,98994.19
2023-01-03T05:02:35.516Z,98998.19
2023-01-03T05:05:02.535Z,99005.16
2023-01-03T05:07:29.789Z,98997.38
2023-01-03T05:09:56.591Z,99019.00
2023-01-03T05:12:23.458Z,99017.59
2023-01-03T05:14:50.243Z,99018.03
2023-01-03T05:17:21.045Z,99017.50
2023-01-03T05:20:06.615Z,99017.28
2023-01-03T05:22:51.933Z,99022.06
2023-01-03T05:25:37.774Z,99020.25
2023-01-03T05:28:04.551Z,99018.84
2023-01-03T05:30:31.310Z,99025.16
2023-01-03T05:32:58.178Z,99026.38
2023-01-03T05:35:24.897Z,99030.59
2023-01-03T05:37:54.888Z,99038.19
2023-01-03T05:40:21.652Z,99029.13
2023-01-03T05:42:48.396Z,99033.22
2023-01-03T05:45:15.271Z,99046.25
2023-01-03T05:47:42.092Z,99041.00
2023-01-03T05:50:08.919Z,99053.03
2023-01-03T05:52:35.688Z,99045.97
2023-01-03T05:55:02.751Z,99051.72
2023-01-03T05:57:35.192Z,99050.13
2023-01-03T06:00:03.866Z,99042.75
2023-01-03T06:02:32.426Z,99051.63
2023-01-03T06:04:59.295Z,99044.69
2023-01-03T06:07:26.154Z,99057.66
2023-01-03T06:09:52.890Z,99052.78
2023-01-03T06:12:19.607Z,99049.59
2023-01-03T06:14:46.464Z,99056.72
2023-01-03T06:17:31.850Z,99051.56
2023-01-03T06:19:59.035Z,99050.91
2023-01-03T06:22:25.755Z,99052.03
2023-01-03T06:24:52.539Z,99054.25
2023-01-03T06:27:19.797Z,99057.50
2023-01-03T06:29:46.661Z,99065.16
2023-01-03T06:32:13.416Z,99060.13
2023-01-03T06:34:40.210Z,99059.88
2023-01-03T06:37:07.077Z,99078.38
2023-01-03T06:39:33.920Z,99082.91
2023-01-03T06:42:20.757Z,99073.28
2023-01-03T06:45:06.449Z,99073.69
2023-01-03T06:47:51.775Z,99060.41
2023-01-03T06:50:37.715Z,99085.72
2023-01-03T06:53:13.898Z,99082.16
2023-01-03T06:55:44.727Z,99080.22
2023-01-03T06:58:12.057Z,99075.25
2023-01-03T07:00:39.922Z,99079.97
2023-01-03T07:03:11.143Z,99088.53
2023-01-03T07:05:39.293Z,99090.88
2023-01-03T07:08:06.041Z,99084.88
2023-01-03T07:10:32.870Z,99101.41
2023-01-03T07:13:20.821Z,99112.91
2023-01-03T07:15:47.883Z,99109.13
2023-01-03T07:18:14.671Z,99112.50
2023-01-03T07:20:45.416Z,99097.44
2023-01-03T07:23:12.473Z,99107.38
2023-01-03T07:25:41.310Z,99106.66
2023-01-03T07:28:11.803Z,99108.03
2023-01-03T07:30:39.666Z,99106.75
2023-01-03T07:33:06.906Z,99113.97
2023-01-03T07:35:34.693Z,99127.13
2023-01-03T07:38:01.905Z,99119.75
2023-01-03T07:40:28.857Z,99126.50
2023-01-03T07:43:14.185Z,99136.00
2023-01-03T07:45:44.222Z,99143.38
2023-01-03T07:48:11.122Z,99139.91
2023-01-03T07:50:38.132Z,99128.84
2023-01-03T07:53:05.643Z,99143.53
2023-01-03T07:55:35.335Z,99152.00
2023-01-03T07:58:02.398Z,99148.41
2023-01-03T08:00:29.095Z,99138.28
2023-01-03T08:02:56.060Z,99159.22
2023-01-03T08:05:23.236Z,99158.94
2023-01-03T08:07:50.592Z,99163.66
2023-01-03T08:10:35.885Z,99163.91
2023-01-03T08:13:17.746Z,99159.38
2023-01-03T08:15:49.508Z,99130.09
2023-01-03T08:18:17.125Z,99165.88
2023-01-03T08:20:44.126Z,99162.09
2023-01-03T08:23:10.997Z,99162.09
2023-01-03T08:25:37.780Z,99169.81
2023-01-03T08:28:05.278Z,99134.84
2023-01-03T08:30:32.460Z,99169.75
2023-01-03T08:33:01.659Z,99179.28
2023-01-03T08:35:29.839Z,99171.09
2023-01-03T08:37:56.757Z,99177.56
2023-01-03T08:40:23.540Z,99169.00
2023-01-03T08:42:50.432Z,99179.13
2023-01-03T08:45:17.645Z,99163.91
2023-01-03T08:47:44.489Z,99171.38
2023-01-03T08:50:11.570Z,99170.63
2023-01-03T08:52:38.455Z,99183.41
2023-01-03T08:55:05.695Z,99190.59
2023-01-03T08:57:32.508Z,99170.69
2023-01-03T08:59:59.347Z,99212.53
2023-01-03T09:02:26.434Z,99207.69
2023-01-03T09:04:53.390Z,99189.53
2023-01-03T09:07:20.237Z,99167.25
2023-01-03T09:09:46.994Z,99200.88
2023-01-03T09:12:13.779Z,99193.19
2023-01-03T09:14:40.537Z,99199.47
2023-01-03T09:17:07.319Z,99187.19
2023-01-03T09:19:34.035Z,99205.09
2023-01-03T09:22:01.778Z,99227.50
2023-01-03T09:24:28.608Z,99201.72
2023-01-03T09:26:55.431Z,99226.69
2023-01-03T09:29:22.408Z,99227.09
2023-01-03T09:31:51.326Z,99219.75
2023-01-03T09:34:18.464Z,99204.66
2023-01-03T09:36:45.361Z,99223.59
2023-01-03T09:39:12.177Z,99225.56
2023-01-03T09:41:38.949Z,99215.97
2023-01-03T09:44:07.191Z,99212.50
2023-01-03T09:46:35.277Z,99211.69
2023-01-03T09:49:02.133Z,99222.78
2023-01-03T09:51:54.070Z,99210.63
2023-01-03T09:54:48.611Z,99215.91
2023-01-03T09:57:41.588Z,99204.59
2023-01-03T10:00:53.194Z,99193.09
2023-01-03T10:03:50.349Z,99213.59
2023-01-03T10:06:44.772Z,99209.06
2023-01-03T10:09:30.306Z,99202.38
2023-01-03T10:12:05.343Z,99195.13
2023-01-03T10:15:04.521Z,99197.31
2023-01-03T10:17:46.952Z,99200.06
2023-01-03T10:20:15.171Z,99200.91
2023-01-03T10:22:42.201Z,99211.69
2023-01-03T10:25:21.525Z,99199.38
2023-01-03T10:27:51.856Z,99198.94
2023-01-03T10:30:20.226Z,99184.75
2023-01-03T10:32:58.551Z,99200.47
2023-01-03T10:35:29.146Z,99196.66
2023-01-03T10:37:56.433Z,99177.34
2023-01-03T10:40:36.913Z,99190.19
2023-01-03T10:43:16.462Z,99187.22
2023-01-03T10:45:51.347Z,99189.56
2023-01-03T10:48:18.192Z,99175.56
2023-01-03T10:50:44.956Z,99181.69
2023-01-03T10:53:11.916Z,99173.72
2023-01-03T10:55:44.887Z,99177.94
2023-01-03T10:58:21.839Z,99171.28
2023-01-03T11:00:48.834Z,99171.56
2023-01-03T11:03:16.883Z,99175.19
2023-01-03T11:06:07.833Z,99183.16
2023-01-03T11:08:35.684Z,99183.16
2023-01-03T11:11:02.403Z,99160.78
2023-01-03T11:13:41.758Z,99144.63
2023-01-03T11:16:16.554Z,99166.28
2023-01-03T11:18:43.813Z,99166.69
2023-01-03T11:21:23.341Z,99165.34
2023-01-03T11:24:04.759Z,99165.84
2023-01-03T11:27:01.058Z,99156.09
2023-01-03T11:29:52.041Z,99144.16
2023-01-03T11:32:51.338Z,99164.88
2023-01-03T11:35:43.619Z,99156.91
2023-01-03T11:38:24.168Z,99155.03
2023-01-03T11:41:10.155Z,99155.50
2023-01-03T11:43:42.763Z,99150.19
2023-01-03T11:46:09.501Z,99151.28
2023-01-03T11:48:40.000Z,99148.50
2023-01-03T11:51:17.819Z,99147.78
2023-01-03T11:53:50.478Z,99152.72
2023-01-03T11:56:17.125Z,99152.13
2023-01-03T11:59:02.183Z,99149.78
2023-01-03T12:01:39.010Z,99145.31
2023-01-03T12:04:25.999Z,99144.75
2023-01-03T12:10:24.790Z,99137.25
2023-01-03T12:13:18.882Z,99139.91
2023-01-03T12:15:50.697Z,99145.59
2023-01-03T12:18:32.934Z,99147.53
2023-01-03T12:21:06.369Z,99133.31
2023-01-03T12:23:57.018Z,99144.88
2023-01-03T12:26:24.698Z,99136.91
2023-01-03T12:28:54.519Z,99137.16
2023-01-03T12:31:46.261Z,99146.56
2023-01-03T12:34:26.570Z,99141.25
2023-01-03T12:37:09.254Z,99132.81
2023-01-03T12:39:56.361Z,99134.88
2023-01-03T12:42:25.138Z,99138.47
2023-01-03T12:45:23.325Z,99136.16
2023-01-03T12:48:31.162Z,99135.19
2023-01-03T12:50:57.963Z,99126.84
2023-01-03T12:53:33.886Z,99124.00
2023-01-03T12:56:38.446Z,99127.13
2023-01-03T12:59:06.707Z,99128.25
2023-01-03T13:01:42.167Z,99130.22
2023-01-03T13:04:22.953Z,99117.22
2023-01-03T13:07:17.024Z,99123.03
2023-01-03T13:09:45.933Z,99118.72
2023-01-03T13:12:18.784Z,99109.00
2023-01-03T13:14:56.560Z,99118.66
2023-01-03T13:17:25.665Z,99113.59
2023-01-03T13:20:27.203Z,99117.00
2023-01-03T13:23:16.400Z,99115.53
2023-01-03T13:25:44.119Z,99104.59
2023-01-03T13:28:20.227Z,99114.75
2023-01-03T13:30:47.400Z,99105.81
2023-01-03T13:33:16.540Z,99103.19
2023-01-03T13:35:43.252Z,99108.00
2023-01-03T13:38:35.887Z,99109.22
2023-01-03T13:41:17.984Z,99112.25
2023-01-03T13:43:47.197Z,99112.13
2023-01-03T13:46:25.860Z,99110.53
2023-01-03T13:49:03.228Z,99125.09
2023-01-03T13:51:38.946Z,99124.50
2023-01-03T13:54:11.666Z,99115.81
2023-01-03T13:56:44.392Z,99121.94
2023-01-03T13:59:14.293Z,99127.22
2023-01-03T14:02:06.344Z,99128.41
2023-01-03T14:05:10.334Z,99126.00
2023-01-03T14:07:56.900Z,99137.72
2023-01-03T14:10:59.495Z,99137.84
2023-01-03T14:13:39.178Z,99142.22
2023-01-03T14:16:53.650Z,99145.09
2023-01-03T14:19:35.894Z,99138.56
2023-01-03T14:22:28.809Z,99133.25
2023-01-03T14:24:58.165Z,99142.88
2023-01-03T14:27:45.187Z,99146.94
2023-01-03T14:30:22.290Z,99147.16
2023-01-03T14:32:49.270Z,99143.59
2023-01-03T14:35:33.120Z,99152.72
2023-01-03T14:38:06.241Z,99152.94
2023-01-03T14:40:33.729Z,99153.69
2023-01-03T14:43:03.879Z,99154.63
2023-01-03T14:45:30.708Z,99110.53
2023-01-03T14:47:57.460Z,99146.69
2023-01-03T14:50:28.822Z,99151.03
2023-01-03T14:52:59.805Z,99144.75
2023-01-03T14:55:30.990Z,99156.53
2023-01-03T14:57:57.979Z,99145.19
2023-01-03T15:00:32.578Z,99158.91
2023-01-03T15:03:00.584Z,99159.41
2023-01-03T15:05:35.529Z,99152.41
2023-01-03T15:08:08.974Z,99156.59
2023-01-03T15:10:53.314Z,99138.97
2023-01-03T15:13:26.609Z,99164.38
2023-01-03T15:15:58.587Z,99164.88
2023-01-03T15:18:29.573Z,99154.91
2023-01-03T15:20:56.513Z,99170.63
2023-01-03T15:23:26.589Z,99175.84
2023-01-03T15:25:53.417Z,99182.72
2023-01-03T15:28:28.255Z,99173.13
2023-01-03T15:31:11.973Z,99179.38
2023-01-03T15:33:38.960Z,99173.03
2023-01-03T15:36:19.066Z,99178.72
2023-01-03T15:38:46.798Z,99171.63
2023-01-03T15:41:15.788Z,99178.81
2023-01-03T15:43:42.782Z,99182.94
2023-01-03T15:46:15.008Z,99184.84
2023-01-03T15:48:42.865Z,99183.16
2023-01-03T15:51:09.643Z,99190.50
2023-01-03T15:53:44.284Z,99182.47
2023-01-03T15:56:21.811Z,99194.03
2023-01-03T15:58:50.814Z,99196.97
2023-01-03T16:01:18.453Z,99201.41
2023-01-03T16:03:45.399Z,99197.69
2023-01-03T16:06:12.184Z,99199.38
2023-01-03T16:08:39.526Z,99190.22
2023-01-03T16:11:15.548Z,99207.72
2023-01-03T16:13:45.699Z,99211.44
2023-01-03T16:16:12.516Z,99217.44
2023-01-03T16:18:44.716Z,99215.38
2023-01-03T16:21:12.537Z,99166.84
2023-01-03T16:23:39.323Z,99213.69
2023-01-03T16:26:06.149Z,99211.91
2023-01-03T16:28:32.943Z,99210.00
2023-01-03T16:31:15.944Z,99213.47
2023-01-03T16:33:42.875Z,99198.06
2023-01-03T16:36:32.633Z,99220.34
2023-01-03T16:38:59.682Z,99220.59
2023-01-03T16:41:26.585Z,99206.47
2023-01-03T16:43:54.379Z,99218.63
2023-01-03T16:46:22.495Z,99221.25
2023-01-03T16:48:52.755Z,99222.63
2023-01-03T16:51:21.592Z,99233.66
2023-01-03T16:53:48.446Z,99212.78
2023-01-03T16:56:15.207Z,99226.56
2023-01-03T16:58:41.961Z,99225.56
2023-01-03T17:01:08.831Z,99237.81
2023-01-03T17:03:41.524Z,99241.19
2023-01-03T17:06:37.424Z,99237.25
2023-01-03T17:09:26.595Z,99238.81
2023-01-03T17:11:53.432Z,99245.78
2023-01-03T17:14:21.115Z,99234.44
2023-01-03T17:16:48.298Z,99231.28
2023-01-03T17:20:01.630Z,99244.78
2023-01-03T17:22:06.471Z,99244.09
2023-01-03T17:24:33.304Z,99249.00
2023-01-03T17:27:04.089Z,99252.72
2023-01-03T17:29:30.906Z,99251.47
2023-01-03T17:31:58.034Z,99252.72
2023-01-03T17:34:26.700Z,99241.53
2023-01-03T17:36:53.956Z,99255.84
2023-01-03T17:39:20.854Z,99251.63
2023-01-03T17:42:06.277Z,99254.25
2023-01-03T17:44:33.087Z,99260.81
2023-01-03T17:47:39.871Z,99260.03
2023-01-03T17:50:07.532Z,99273.91
2023-01-03T17:52:36.225Z,99251.56
2023-01-03T17:55:03.948Z,99274.88
2023-01-03T17:57:30.904Z,99276.59
2023-01-03T17:59:57.797Z,99276.13
2023-01-03T18:02:25.714Z,99275.03
2023-01-03T18:07:39.511Z,99281.47
2023-01-03T18:10:07.652Z,99233.28
2023-01-03T18:12:34.450Z,99268.28
2023-01-03T18:15:01.258Z,99276.44
2023-01-03T18:17:29.705Z,99274.16
2023-01-03T18:19:57.110Z,99281.47
2023-01-03T18:22:24.007Z,99255.06
2023-01-03T18:24:51.888Z,99256.00
2023-01-03T18:27:19.044Z,99277.53
2023-01-03T18:29:45.749Z,99283.88
2023-01-03T18:32:27.931Z,99276.63
2023-01-03T18:34:54.955Z,99277.50
2023-01-03T18:37:23.044Z,99281.88
2023-01-03T18:39:50.837Z,99288.13
2023-01-03T18:42:36.096Z,99284.38
2023-01-03T18:45:02.978Z,99263.38
2023-01-03T18:47:30.093Z,99278.63
2023-01-03T18:49:56.922Z,99294.47
2023-01-03T18:52:29.284Z,99295.56
2023-01-03T18:54:56.124Z,99274.75
2023-01-03T18:57:22.902Z,99283.09
2023-01-03T18:59:50.496Z,99286.34
2023-01-03T19:02:18.977Z,99290.28
2023-01-03T19:04:51.080Z,99297.97
2023-01-03T19:07:31.848Z,99286.31
2023-01-03T19:09:58.871Z,99293.31
2023-01-03T19:12:25.599Z,99267.00
2023-01-03T19:14:52.417Z,99281.75
2023-01-03T19:17:19.510Z,99289.03
2023-01-03T19:19:46.375Z,99286.06
2023-01-03T19:22:19.596Z,99291.38
2023-01-03T19:24:46.360Z,99291.09
2023-01-03T19:27:15.145Z,99279.78
2023-01-03T19:29:42.034Z,99303.91
2023-01-03T19:32:20.224Z,99272.13
2023-01-03T19:34:47.251Z,99307.81
2023-01-03T19:37:13.987Z,99309.94
2023-01-03T19:39:40.832Z,99312.78
2023-01-03T19:42:29.707Z,99312.19
2023-01-03T19:44:56.576Z,99311.41
2023-01-03T19:47:23.298Z,99306.69
2023-01-03T19:49:50.230Z,99292.16
2023-01-03T19:52:16.981Z,99316.31
2023-01-03T19:54:44.066Z,99306.09
2023-01-03T19:57:21.217Z,99305.63
2023-01-03T19:59:51.256Z,99273.13
2023-01-03T20:02:26.388Z,99309.63
2023-01-03T20:04:53.711Z,99301.44
2023-01-03T20:07:20.660Z,99309.00
2023-01-03T20:09:47.673Z,99290.47
2023-01-03T20:12:15.464Z,99281.84
2023-01-03T20:14:44.590Z,99292.19
2023-01-03T20:17:21.874Z,99295.44
2023-01-03T20:19:49.001Z,99294.50
2023-01-03T20:22:52.962Z,99273.56
2023-01-03T20:25:04.381Z,99297.28
2023-01-03T20:27:31.383Z,99301.59
2023-01-03T20:29:58.163Z,99307.63
2023-01-03T20:32:25.146Z,99305.00
2023-01-03T20:34:52.213Z,99298.56
2023-01-03T20:37:19.105Z,99308.28
2023-01-03T20:39:46.101Z,99305.06
2023-01-03T20:42:21.235Z,99302.22
2023-01-03T20:44:48.262Z,99306.78
2023-01-03T20:47:15.155Z,99302.69
2023-01-03T20:49:42.033Z,99293.44
2023-01-03T20:52:14.501Z,99311.81
2023-01-03T20:54:41.345Z,99306.56
2023-01-03T20:57:15.375Z,99257.81
2023-01-03T20:59:42.359Z,99313.91
2023-01-03T21:02:10.443Z,99304.09
2023-01-03T21:04:38.130Z,99294.22
2023-01-03T21:07:11.130Z,99300.47
2023-01-03T21:09:38.543Z,99305.63
2023-01-03T21:12:05.406Z,99310.59
2023-01-03T21:14:32.296Z,99284.97
2023-01-03T21:16:59.145Z,99300.56
2023-01-03T21:19:26.191Z,99298.53
2023-01-03T21:21:54.947Z,99300.84
2023-01-03T21:24:23.411Z,99302.19
2023-01-03T21:26:50.460Z,99301.97
2023-01-03T21:29:17.364Z,99289.28
2023-01-03T21:31:44.207Z,99294.53
2023-01-03T21:34:20.707Z,99287.59
2023-01-03T21:36:47.909Z,99277.56
2023-01-03T21:39:14.889Z,99291.66
2023-01-03T21:42:00.370Z,99297.78
2023-01-03T21:44:27.209Z,99291.53
2023-01-03T21:46:53.946Z,99282.47
2023-01-03T21:49:20.804Z,99289.97
2023-01-03T21:51:47.571Z,99299.16
2023-01-03T21:54:14.396Z,99292.19
2023-01-03T21:56:47.264Z,99283.88
2023-01-03T21:59:14.818Z,99283.25
2023-01-03T22:02:02.108Z,99266.97
2023-01-03T22:04:29.015Z,99284.97
2023-01-03T22:07:00.654Z,99285.13
2023-01-03T22:09:47.272Z,99287.50
2023-01-03T22:12:15.814Z,99277.09
2023-01-03T22:14:44.267Z,99270.72
2023-01-03T22:17:11.337Z,99274.16
2023-01-03T22:19:38.055Z,99273.13
2023-01-03T22:22:04.959Z,99276.53
2023-01-03T22:24:31.865Z,99279.78
2023-01-03T22:26:58.658Z,99284.31
2023-01-03T22:29:25.423Z,99278.56
2023-01-03T22:31:52.387Z,99283.22
2023-01-03T22:34:19.179Z,99278.25
2023-01-03T22:36:46.022Z,99276.56
2023-01-03T22:39:12.933Z,99272.31
2023-01-03T22:41:39.701Z,99280.75
2023-01-03T22:44:06.588Z,99279.81
2023-01-03T22:46:33.429Z,99255.19
2023-01-03T22:49:00.146Z,99271.41
2023-01-03T22:51:27.008Z,99267.06
2023-01-03T22:53:54.176Z,99274.38
2023-01-03T22:56:21.007Z,99272.06
2023-01-03T22:58:47.764Z,99269.22
2023-01-03T23:01:19.126Z,99272.53
2023-01-03T23:03:46.594Z,99267.44
2023-01-03T23:06:15.765Z,99282.19
2023-01-03T23:08:42.883Z,99277.28
2023-01-03T23:11:34.166Z,99260.97
2023-01-03T23:14:02.554Z,99280.13
2023-01-03T23:16:29.380Z,99276.06
2023-01-03T23:18:56.273Z,99279.78
2023-01-03T23:21:23.016Z,99274.28
2023-01-03T23:23:50.301Z,99271.09
2023-01-03T23:26:17.070Z,99268.41
2023-01-03T23:28:44.169Z,99265.25
2023-01-03T23:31:11.042Z,99232.72
2023-01-03T23:33:37.893Z,99264.50
2023-01-03T23:36:05.908Z,99262.25
2023-01-03T23:38:32.693Z,99255.91
2023-01-03T23:40:59.922Z,99256.00
2023-01-03T23:43:27.422Z,99261.34
2023-01-03T23:45:54.176Z,99250.66
2023-01-03T23:48:21.139Z,99257.00
2023-01-03T23:50:47.903Z,99246.69
2023-01-03T23:53:14.671Z,99246.69
2023-01-03T23:55:41.391Z,99244.81
2023-01-03T23:58:08.462Z,99239.19
